Gulden Leeuw — PCBH — position and weather

sailwx.info

Track history (hours):
 
Tides and Currents Weather Stations Pressure Air Temp Water Temp Dewpoint Dewpoint Depression Visibility Wind Speed Wind Dir Waves Ship Positions

Gulden Leeuw

Last reported at 2020-Mar-25 00:05 UTC. Time now 2020-Apr-06 10:59 UTC.
Position N 26°21' W 079°31'.
Warning: this ship's position is 12 days out of date.

Length 57 m; draft 4.2 m.

Type: Sailing vessel. MMSI: 246709000.

Date/timePositionNaut miles runAvg speedWind from/ knotsBaromVisibWave heightAir tempDewpointWater temp
2020-Mar-25 00:05N 26°21' W 079°31'1110.4
2020-Mar-24 23:00N 26°11' W 079°36'1611.0
2020-Mar-24 21:30N 25°56' W 079°43'1711.5
2020-Mar-24 20:00N 25°40' W 079°50'611.1
2020-Mar-24 19:29N 25°35' W 079°52'510.9
2020-Mar-24 19:00N 25°30' W 079°54'  
2020-Mar-21 03:00N 21°23' W 089°39'3 5.0
2020-Mar-21 02:28N 21°21' W 089°41'1 1.3
2020-Mar-21 01:52N 21°21' W 089°40'0 0.0
2020-Mar-21 01:28N 21°21' W 089°40'0 0.0
2020-Mar-21 00:50N 21°21' W 089°40'0 0.0
2020-Mar-20 23:31N 21°21' W 089°40'0 0.0
2020-Mar-20 22:58N 21°21' W 089°40'0 0.0
2020-Mar-20 21:28N 21°21' W 089°40'0 0.0
2020-Mar-20 20:59N 21°21' W 089°40'0 0.0
2020-Mar-20 20:13N 21°21' W 089°40'0 0.0
2020-Mar-20 19:28N 21°21' W 089°40'0 0.0
2020-Mar-20 18:58N 21°21' W 089°40'0 0.0
2020-Mar-20 16:58N 21°21' W 089°40'0 0.0
2020-Mar-20 15:58N 21°21' W 089°40'0 0.0
2020-Mar-20 14:27N 21°21' W 089°40'0 0.0
2020-Mar-20 13:59N 21°21' W 089°40'0 0.0
2020-Mar-20 13:00N 21°21' W 089°40'0 0.0
2020-Mar-20 11:00N 21°21' W 089°40'0 0.0
2020-Mar-20 08:59N 21°21' W 089°40'0 0.0
2020-Mar-20 08:30N 21°21' W 089°40'0 0.0
2020-Mar-20 06:00N 21°21' W 089°40'0 0.0
2020-Mar-20 05:30N 21°21' W 089°40'0 0.0
2020-Mar-20 03:00N 21°21' W 089°40'0 0.0
2020-Mar-20 02:29N 21°21' W 089°40'0 0.0
2020-Mar-19 23:59N 21°21' W 089°40'0 0.0
2020-Mar-19 23:00N 21°21' W 089°40'0 0.0
2020-Mar-19 22:30N 21°21' W 089°40'0 0.0
2020-Mar-19 19:59N 21°21' W 089°40'0 0.0
2020-Mar-19 19:29N 21°21' W 089°40'0 0.0
2020-Mar-19 18:29N 21°21' W 089°40'0 0.0
2020-Mar-19 16:29N 21°21' W 089°40'0 0.0
2020-Mar-19 14:29N 21°21' W 089°40'0 0.0
2020-Mar-19 14:00N 21°21' W 089°40'0 0.0
2020-Mar-19 13:29N 21°21' W 089°40'0 0.0
2020-Mar-19 09:59N 21°21' W 089°40'0 0.0
2020-Mar-19 09:29N 21°21' W 089°40'0 0.0
2020-Mar-19 08:29N 21°21' W 089°40'0 0.0
2020-Mar-19 06:29N 21°21' W 089°40'0 0.0
2020-Mar-19 05:29N 21°21' W 089°40'0 0.0
2020-Mar-19 04:59N 21°21' W 089°40'0 0.0
2020-Mar-19 04:29N 21°21' W 089°40'0 0.0
2020-Mar-19 03:29N 21°21' W 089°40'0 0.0
2020-Mar-19 02:29N 21°21' W 089°40'0 0.0
2020-Mar-19 00:59N 21°21' W 089°40'0 0.0
2020-Mar-18 23:56N 21°21' W 089°40'1 0.2
2020-Mar-18 20:00N 21°21' W 089°41'9 5.6
2020-Mar-18 18:27N 21°26' W 089°34'  
Track history (hours):
 
Tides and Currents Weather Stations Pressure Air Temp Water Temp Dewpoint Dewpoint Depression Visibility Wind Speed Wind Dir Waves Ship Positions

Gulden Leeuw

Last reported at 2020-Mar-25 00:05 UTC. Time now 2020-Apr-06 10:59 UTC.
Position N 26°21' W 079°31'.
Warning: this ship's position is 12 days out of date.

Length 57 m; draft 4.2 m.

Type: Sailing vessel. MMSI: 246709000.

Date/timePositionNaut miles runAvg speedWind from/ knotsBaromVisibWave heightAir tempDewpointWater temp
2020-Mar-25 00:05N 26°21' W 079°31'1110.4
2020-Mar-24 23:00N 26°11' W 079°36'1611.0
2020-Mar-24 21:30N 25°56' W 079°43'1711.5
2020-Mar-24 20:00N 25°40' W 079°50'611.1
2020-Mar-24 19:29N 25°35' W 079°52'510.9
2020-Mar-24 19:00N 25°30' W 079°54'  
2020-Mar-21 03:00N 21°23' W 089°39'3 5.0
2020-Mar-21 02:28N 21°21' W 089°41'1 1.3
2020-Mar-21 01:52N 21°21' W 089°40'0 0.0
2020-Mar-21 01:28N 21°21' W 089°40'0 0.0
2020-Mar-21 00:50N 21°21' W 089°40'0 0.0
2020-Mar-20 23:31N 21°21' W 089°40'0 0.0
2020-Mar-20 22:58N 21°21' W 089°40'0 0.0
2020-Mar-20 21:28N 21°21' W 089°40'0 0.0
2020-Mar-20 20:59N 21°21' W 089°40'0 0.0
2020-Mar-20 20:13N 21°21' W 089°40'0 0.0
2020-Mar-20 19:28N 21°21' W 089°40'0 0.0
2020-Mar-20 18:58N 21°21' W 089°40'0 0.0
2020-Mar-20 16:58N 21°21' W 089°40'0 0.0
2020-Mar-20 15:58N 21°21' W 089°40'0 0.0
2020-Mar-20 14:27N 21°21' W 089°40'0 0.0
2020-Mar-20 13:59N 21°21' W 089°40'0 0.0
2020-Mar-20 13:00N 21°21' W 089°40'0 0.0
2020-Mar-20 11:00N 21°21' W 089°40'0 0.0
2020-Mar-20 08:59N 21°21' W 089°40'0 0.0
2020-Mar-20 08:30N 21°21' W 089°40'0 0.0
2020-Mar-20 06:00N 21°21' W 089°40'0 0.0
2020-Mar-20 05:30N 21°21' W 089°40'0 0.0
2020-Mar-20 03:00N 21°21' W 089°40'0 0.0
2020-Mar-20 02:29N 21°21' W 089°40'0 0.0
2020-Mar-19 23:59N 21°21' W 089°40'0 0.0
2020-Mar-19 23:00N 21°21' W 089°40'0 0.0
2020-Mar-19 22:30N 21°21' W 089°40'0 0.0
2020-Mar-19 19:59N 21°21' W 089°40'0 0.0
2020-Mar-19 19:29N 21°21' W 089°40'0 0.0
2020-Mar-19 18:29N 21°21' W 089°40'0 0.0
2020-Mar-19 16:29N 21°21' W 089°40'0 0.0
2020-Mar-19 14:29N 21°21' W 089°40'0 0.0
2020-Mar-19 14:00N 21°21' W 089°40'0 0.0
2020-Mar-19 13:29N 21°21' W 089°40'0 0.0
2020-Mar-19 09:59N 21°21' W 089°40'0 0.0
2020-Mar-19 09:29N 21°21' W 089°40'0 0.0
2020-Mar-19 08:29N 21°21' W 089°40'0 0.0
2020-Mar-19 06:29N 21°21' W 089°40'0 0.0
2020-Mar-19 05:29N 21°21' W 089°40'0 0.0
2020-Mar-19 04:59N 21°21' W 089°40'0 0.0
2020-Mar-19 04:29N 21°21' W 089°40'0 0.0
2020-Mar-19 03:29N 21°21' W 089°40'0 0.0
2020-Mar-19 02:29N 21°21' W 089°40'0 0.0
2020-Mar-19 00:59N 21°21' W 089°40'0 0.0
2020-Mar-18 23:56N 21°21' W 089°40'1 0.2
2020-Mar-18 20:00N 21°21' W 089°41'9 5.6
2020-Mar-18 18:27N 21°26' W 089°34'  

Dump ship's entire track history